Archival Weather

Republic

Farmingdale, New York (KFRG)

Report from: Wednesday, February 14, 2024 6:53 AM EST
Current time: Friday, June 14, 2024 7:40 AM EDT

Current weather – Weather history – Daily summaries
Weather forecast

Temperature-1.7°C (28.9°F)
Wind chill-7.7°C (18.1°F)
Dew point-10.6°C (12.9°F)
Winds 12 kts (6.2 m/s, 13.8 mph) Northwest (310°)
Wind gusts 24 kts (12.3 m/s, 27.6 mph)
Peak wind 32 kts (16.5 m/s, 36.8 mph) Northwest (310°) at 10:54
Visibility10 mi. (16.1 km)
Clouds Scattered clouds 5,000 ft. (1,524 m)
Altimeter29.94 in.Hg (1014 mB)
Precip last 24 hours0.22 in. (6 mm)
Relative humidity51 %
Density altitude-2,023 ft. (-617 m)
Sea-level pressure101.4 kPa (1014 mB, 29.94 in.Hg)
Max temp last 6 hours2.2°C (36.0°F)
Min temp last 6 hours-1.7°C (28.9°F)
Remarks Fully automated report
Automated weather observing station without precipitation discriminator
Freezing rain sensor not operating
Pressure rising more quickly
Flight conditions Visual Meteorological Conditions
Raw dataKFRG 141153Z AUTO 31012G24KT 10SM SCT050 M02/M11 A2994 RMK AO1 PK WND 31032/1054 SLP139 70022 T10171106 10022 21017 53031 FZRANO
An error has occurred. This application may no longer respond until reloaded. Reload 🗙